Time;durP1;ratioP1;P1;durP2;ratioP2;P2;SDS_P1;SDS_P2;PMS_P1;PMS_P2;Temp;Humidity;BMP_temperature;BMP_pressure;BME280_temperature;BME280_humidity;BME280_pressure;Samples;Min_cycle;Max_cycle;Signal;HPM_P1;HPM_P2
2022/11/27 00:00:55;;;;;;;48.87;26.03;;;;;;;0.37;100.00;93663.94;5097674;28;20280;-68
2022/11/27 00:03:21;;;;;;;42.73;25.30;;;;;;;0.28;100.00;93672.75;5091997;28;20266;-68
2022/11/27 00:05:54;;;;;;;50.37;26.50;;;;;;;0.33;100.00;93672.22;5091856;28;20284;-68
2022/11/27 00:08:20;;;;;;;43.47;23.27;;;;;;;0.23;100.00;93667.41;5092364;28;20188;-68
2022/11/27 00:10:45;;;;;;;47.60;28.07;;;;;;;0.35;100.00;93676.16;5097615;28;20214;-68
2022/11/27 00:13:10;;;;;;;49.07;30.70;;;;;;;0.44;100.00;93663.94;5097891;28;20199;-68
2022/11/27 00:15:36;;;;;;;52.73;32.13;;;;;;;0.55;100.00;93677.03;5083688;28;20248;-68
2022/11/27 00:18:01;;;;;;;57.07;35.00;;;;;;;0.53;100.00;93667.94;5089374;28;20199;-68
2022/11/27 00:20:26;;;;;;;62.03;34.80;;;;;;;0.53;100.00;93668.72;5091768;28;20212;-68
2022/11/27 00:22:52;;;;;;;42.37;28.47;;;;;;;0.51;100.00;93675.84;5091642;28;20181;-68
2022/11/27 00:25:17;;;;;;;44.60;29.70;;;;;;;0.50;100.00;93674.25;5092501;28;20225;-69
2022/11/27 00:27:43;;;;;;;31.97;26.17;;;;;;;0.61;100.00;93686.53;5091759;28;20902;-69
2022/11/27 00:30:08;;;;;;;25.20;21.37;;;;;;;0.56;100.00;93686.31;5091752;28;20240;-69
2022/11/27 00:32:34;;;;;;;20.87;18.73;;;;;;;0.63;100.00;93689.72;5091669;28;20287;-68
2022/11/27 00:34:59;;;;;;;18.37;16.77;;;;;;;0.68;99.75;93687.38;5099456;28;20287;-68
2022/11/27 00:37:24;;;;;;;16.47;14.83;;;;;;;0.66;99.52;93676.47;5098245;28;20185;-68
2022/11/27 00:39:50;;;;;;;15.30;13.93;;;;;;;0.53;100.00;93689.25;5101336;28;20220;-68
2022/11/27 00:42:15;;;;;;;15.90;14.40;;;;;;;0.37;100.00;93673.41;5092916;28;20184;-68
2022/11/27 00:44:40;;;;;;;16.47;15.00;;;;;;;0.58;100.00;93692.06;5093701;28;20228;-69
2022/11/27 00:47:06;;;;;;;16.33;14.80;;;;;;;0.57;99.98;93679.41;5098562;28;20248;-68
2022/11/27 00:49:31;;;;;;;20.20;15.63;;;;;;;0.72;100.00;93698.84;5090855;28;20196;-68
2022/11/27 00:51:56;;;;;;;19.20;17.23;;;;;;;0.77;99.66;93686.22;5091451;28;20200;-68
2022/11/27 00:54:22;;;;;;;16.50;14.90;;;;;;;0.71;100.00;93692.13;5089345;28;20188;-69
2022/11/27 00:56:47;;;;;;;15.23;13.73;;;;;;;0.56;100.00;93658.06;5091176;28;20189;-69
2022/11/27 00:59:12;;;;;;;17.80;16.13;;;;;;;0.78;100.00;93681.88;5090290;28;20192;-68
2022/11/27 01:01:41;;;;;;;16.83;14.87;;;;;;;0.65;100.00;93672.34;5100721;28;20683;-68
2022/11/27 01:04:10;;;;;;;16.23;14.73;;;;;;;0.73;100.00;93685.00;5089705;28;20224;-68
2022/11/27 01:06:36;;;;;;;17.67;15.07;;;;;;;0.77;100.00;93683.63;5097847;28;20259;-68
2022/11/27 01:09:02;;;;;;;17.97;16.00;;;;;;;0.77;100.00;93681.06;5091275;28;20185;-69
2022/11/27 01:11:30;;;;;;;17.93;16.03;;;;;;;0.87;100.00;93675.56;5098036;28;20209;-69
2022/11/27 01:13:58;;;;;;;19.80;17.43;;;;;;;0.73;99.97;93677.28;5093773;28;20931;-68
2022/11/27 01:16:25;;;;;;;23.57;17.17;;;;;;;0.49;100.00;93666.72;5090277;28;20216;-68
2022/11/27 01:18:53;;;;;;;18.37;15.30;;;;;;;0.42;100.00;93653.84;5091172;28;20169;-68
2022/11/27 01:21:20;;;;;;;18.20;16.50;;;;;;;0.56;100.00;93668.31;5094789;28;20224;-69
2022/11/27 01:23:47;;;;;;;18.57;15.97;;;;;;;0.42;100.00;93669.25;5086976;28;20217;-68
2022/11/27 01:26:13;;;;;;;17.23;15.53;;;;;;;0.45;100.00;93671.44;5092098;28;20220;-69
2022/11/27 01:28:39;;;;;;;16.03;14.43;;;;;;;0.47;100.00;93669.47;5090774;28;20199;-68
2022/11/27 01:31:16;;;;;;;17.73;15.90;;;;;;;0.41;100.00;93666.88;5090552;28;20224;-69
2022/11/27 01:33:42;;;;;;;18.33;16.43;;;;;;;0.56;100.00;93644.44;5090739;28;20188;-68
2022/11/27 01:36:10;;;;;;;17.90;16.03;;;;;;;0.79;99.72;93658.53;5091163;28;20225;-68
2022/11/27 01:38:35;;;;;;;20.00;18.00;;;;;;;0.63;99.43;93646.03;5090351;28;20252;-69
2022/11/27 01:41:07;;;;;;;20.30;18.20;;;;;;;0.64;99.95;93655.31;5094750;28;20246;-69
2022/11/27 01:43:46;;;;;;;17.97;16.03;;;;;;;0.69;99.75;93652.16;5085665;28;20263;-68
2022/11/27 01:46:31;;;;;;;18.57;16.83;;;;;;;0.69;99.75;93637.56;5091232;28;20886;-69
2022/11/27 01:49:09;;;;;;;16.97;15.27;;;;;;;0.69;100.00;93629.03;5089573;28;20180;-69
2022/11/27 01:52:02;;;;;;;18.83;16.53;;;;;;;0.89;99.92;93646.09;5090246;28;21977;-69
2022/11/27 01:54:35;;;;;;;17.50;15.80;;;;;;;0.78;100.00;93646.66;5089831;28;20223;-68
2022/11/27 01:57:06;;;;;;;17.23;15.67;;;;;;;0.83;100.00;93634.03;5089357;28;20195;-69
2022/11/27 01:59:32;;;;;;;17.20;15.53;;;;;;;0.95;100.00;93654.81;5089284;28;20911;-69
2022/11/27 02:02:00;;;;;;;18.90;16.53;;;;;;;1.01;100.00;93643.75;5091066;28;20177;-68
2022/11/27 02:04:25;;;;;;;19.67;16.93;;;;;;;0.95;100.00;93644.53;5089469;28;20242;-69
2022/11/27 02:06:51;;;;;;;17.03;15.30;;;;;;;0.95;100.00;93645.31;5094028;28;20184;-69
2022/11/27 02:09:16;;;;;;;18.80;16.80;;;;;;;1.22;100.00;93643.56;5087854;28;20195;-69
2022/11/27 02:11:50;;;;;;;20.83;16.63;;;;;;;1.26;100.00;93642.22;5092606;28;20189;-68
2022/11/27 02:14:36;;;;;;;19.17;17.13;;;;;;;1.39;99.84;93655.88;5088687;28;20184;-69
2022/11/27 02:17:18;;;;;;;21.43;18.67;;;;;;;1.48;100.00;93649.53;5095132;28;20214;-68
2022/11/27 02:19:56;;;;;;;23.17;18.67;;;;;;;1.51;100.00;93641.41;5089487;28;20224;-68
2022/11/27 02:23:03;;;;;;;25.07;20.93;;;;;;;1.60;100.00;93642.78;5088042;28;20906;-69
2022/11/27 02:25:40;;;;;;;25.13;19.63;;;;;;;1.51;100.00;93650.91;5081889;28;20217;-69
2022/11/27 02:28:30;;;;;;;29.27;20.93;;;;;;;1.51;100.00;93654.28;5083730;28;20188;-69
2022/11/27 02:31:09;;;;;;;26.47;22.23;;;;;;;1.51;100.00;93651.69;5089108;28;20244;-69
2022/11/27 02:33:41;;;;;;;28.90;22.37;;;;;;;1.42;100.00;93658.03;5089384;28;20191;-68
2022/11/27 02:36:15;;;;;;;34.33;24.57;;;;;;;1.51;100.00;93650.91;5090108;28;20220;-68
2022/11/27 02:38:45;;;;;;;32.10;22.53;;;;;;;1.57;100.00;93657.84;5081570;28;20170;-69
2022/11/27 02:41:11;;;;;;;29.33;22.07;;;;;;;1.84;99.88;93664.56;5093842;28;20227;-69
2022/11/27 02:43:49;;;;;;;26.30;21.50;;;;;;;1.43;100.00;93651.13;5088756;28;20220;-68
2022/11/27 02:46:16;;;;;;;34.87;24.90;;;;;;;1.57;100.00;93657.84;5088952;28;20224;-68
2022/11/27 02:49:10;;;;;;;34.80;25.37;;;;;;;1.64;100.00;93656.84;5089636;28;20173;-69
2022/11/27 02:51:41;;;;;;;34.13;23.73;;;;;;;1.50;100.00;93647.56;5095304;28;20289;-69
2022/11/27 02:54:12;;;;;;;32.37;23.53;;;;;;;1.53;100.00;93654.06;5080031;28;20188;-68
2022/11/27 02:56:39;;;;;;;34.67;25.47;;;;;;;1.58;100.00;93649.13;5099020;28;20217;-69
2022/11/27 02:59:09;;;;;;;33.87;24.20;;;;;;;1.49;100.00;93647.75;5089444;28;20193;-68
2022/11/27 03:01:41;;;;;;;39.67;26.87;;;;;;;1.49;100.00;93656.25;5091241;28;20216;-69
2022/11/27 03:04:16;;;;;;;37.13;25.17;;;;;;;1.39;100.00;93655.06;5093256;28;20224;-69
2022/11/27 03:06:46;;;;;;;31.80;23.03;;;;;;;1.51;100.00;93653.47;5088909;28;20203;-69
2022/11/27 03:09:23;;;;;;;34.87;24.77;;;;;;;1.50;100.00;93657.03;5091190;28;20177;-69
2022/11/27 03:11:48;;;;;;;34.33;24.37;;;;;;;1.52;100.00;93655.88;5098622;28;20200;-69
2022/11/27 03:14:15;;;;;;;33.47;24.87;;;;;;;1.42;100.00;93663.19;5108778;28;20177;-69
2022/11/27 03:16:55;;;;;;;31.40;23.30;;;;;;;1.38;100.00;93667.16;5098468;28;20224;-69
2022/11/27 03:19:41;;;;;;;33.87;24.30;;;;;;;1.30;100.00;93667.34;5092972;28;20168;-68
2022/11/27 03:22:07;;;;;;;36.77;25.63;;;;;;;1.33;100.00;93664.38;5093271;28;20204;-69
2022/11/27 03:24:34;;;;;;;37.07;24.70;;;;;;;1.33;100.00;93661.81;5088234;28;20196;-69
2022/11/27 03:27:00;;;;;;;35.53;25.30;;;;;;;1.29;100.00;93665.72;5092138;28;20239;-69
2022/11/27 03:29:44;;;;;;;41.07;25.27;;;;;;;1.02;100.00;93669.28;5092693;28;20240;-69
2022/11/27 03:32:10;;;;;;;54.53;25.30;;;;;;;0.89;100.00;93668.44;5095765;28;20192;-69
2022/11/27 03:34:36;;;;;;;40.47;26.17;;;;;;;1.02;100.00;93664.13;5094612;28;20235;-69
2022/11/27 03:37:02;;;;;;;38.97;24.20;;;;;;;1.17;100.00;93661.38;5095913;28;20192;-69
2022/11/27 03:39:29;;;;;;;44.33;26.80;;;;;;;1.21;100.00;93663.38;5088003;28;20246;-69
2022/11/27 03:42:11;;;;;;;42.97;25.37;;;;;;;1.28;100.00;93651.31;5102169;28;20193;-69
2022/11/27 03:44:45;;;;;;;35.73;24.30;;;;;;;1.21;100.00;93660.81;5088272;28;20263;-69
2022/11/27 03:47:35;;;;;;;33.93;24.33;;;;;;;1.44;100.00;93657.84;5092466;28;20192;-69
2022/11/27 03:50:19;;;;;;;45.57;26.00;;;;;;;1.38;100.00;93658.63;5091823;28;20259;-68
2022/11/27 03:52:57;;;;;;;42.20;26.30;;;;;;;1.48;100.00;93656.44;5092057;28;20200;-69
2022/11/27 03:55:22;;;;;;;51.27;27.80;;;;;;;1.33;100.00;93656.66;5125983;27;20231;-69
2022/11/27 03:57:59;;;;;;;44.30;26.43;;;;;;;1.20;100.00;93655.81;5093159;28;20181;-69
2022/11/27 04:00:30;;;;;;;45.17;25.63;;;;;;;1.29;100.00;93655.44;5092089;28;20237;-69
2022/11/27 04:02:56;;;;;;;47.50;26.53;;;;;;;1.39;100.00;93652.50;5102020;28;20476;-69
2022/11/27 04:05:21;;;;;;;51.80;28.67;;;;;;;1.34;100.00;93658.22;5094750;28;20255;-69
2022/11/27 04:07:46;;;;;;;48.10;28.80;;;;;;;1.27;100.00;93654.88;5095270;28;20180;-69
2022/11/27 04:10:12;;;;;;;47.83;26.83;;;;;;;1.34;100.00;93645.38;5092220;28;20251;-70
2022/11/27 04:12:38;;;;;;;52.10;28.03;;;;;;;1.44;100.00;93644.97;5093060;28;20203;-69
2022/11/27 04:15:04;;;;;;;51.17;27.47;;;;;;;1.28;100.00;93646.16;5092208;28;20224;-69
2022/11/27 04:17:30;;;;;;;57.33;29.40;;;;;;;1.17;100.00;93651.88;5092231;28;20200;-69
2022/11/27 04:19:55;;;;;;;49.73;27.57;;;;;;;1.38;100.00;93638.84;5092069;28;20233;-69
2022/11/27 04:22:21;;;;;;;52.47;26.93;;;;;;;1.48;100.00;93644.38;5091787;28;20197;-69
2022/11/27 04:24:46;;;;;;;55.73;26.43;;;;;;;1.47;100.00;93642.00;5091921;28;20252;-69
2022/11/27 04:27:12;;;;;;;44.83;25.63;;;;;;;1.24;100.00;93647.56;5094729;28;20204;-69
2022/11/27 04:29:37;;;;;;;48.27;28.90;;;;;;;1.23;100.00;93642.59;5079371;28;20546;-69
2022/11/27 04:32:03;;;;;;;46.53;26.60;;;;;;;1.24;100.00;93632.13;5087565;28;20181;-69
2022/11/27 04:34:28;;;;;;;52.80;26.97;;;;;;;1.08;100.00;93644.56;5097439;28;20196;-69
2022/11/27 04:36:53;;;;;;;51.37;25.00;;;;;;;1.17;100.00;93645.94;5092987;28;20196;-69
2022/11/27 04:39:19;;;;;;;48.37;25.37;;;;;;;1.28;100.00;93651.31;5091125;28;20195;-69
2022/11/27 04:41:44;;;;;;;45.67;24.40;;;;;;;1.15;100.00;93650.50;5104375;28;20207;-69
2022/11/27 04:44:11;;;;;;;42.40;23.93;;;;;;;1.27;100.00;93665.16;5091380;28;20243;-69
2022/11/27 04:46:36;;;;;;;44.03;25.33;;;;;;;1.22;100.00;93654.66;5091178;28;20228;-69
2022/11/27 04:49:02;;;;;;;47.07;27.73;;;;;;;1.19;100.00;93652.50;5091526;28;20262;-69
2022/11/27 04:51:27;;;;;;;45.57;25.40;;;;;;;1.31;100.00;93653.47;5091251;28;20220;-69
2022/11/27 04:53:53;;;;;;;53.53;25.23;;;;;;;1.19;100.00;93660.19;5091381;28;20215;-69
2022/11/27 04:56:18;;;;;;;41.10;25.47;;;;;;;1.13;100.00;93668.69;5095614;28;20235;-69
2022/11/27 04:58:44;;;;;;;61.37;25.77;;;;;;;1.27;100.00;93674.66;5091151;28;20181;-69
2022/11/27 05:01:09;;;;;;;47.40;26.03;;;;;;;1.19;100.00;93656.81;5090419;28;20217;-68
2022/11/27 05:03:35;;;;;;;50.90;26.47;;;;;;;1.33;100.00;93651.50;5091089;28;20192;-69
2022/11/27 05:06:00;;;;;;;49.90;25.43;;;;;;;1.27;100.00;93672.88;5091060;28;20292;-69
2022/11/27 05:08:29;;;;;;;41.93;25.40;;;;;;;1.18;100.00;93660.41;5090816;28;20215;-69
2022/11/27 05:11:12;;;;;;;40.47;23.90;;;;;;;1.26;100.00;93648.13;5091288;28;20379;-69
2022/11/27 05:13:38;;;;;;;44.07;25.77;;;;;;;1.32;100.00;93665.34;5084892;28;20240;-69
2022/11/27 05:16:04;;;;;;;39.53;24.23;;;;;;;1.29;100.00;93662.41;5088815;28;20225;-69
2022/11/27 05:18:30;;;;;;;46.43;26.53;;;;;;;1.26;100.00;93655.06;5090822;28;20185;-69
2022/11/27 05:21:02;;;;;;;41.60;25.93;;;;;;;1.11;100.00;93657.81;5089311;28;20299;-69
2022/11/27 05:23:28;;;;;;;48.00;25.50;;;;;;;1.45;100.00;93665.34;5088883;28;20215;-69
2022/11/27 05:25:54;;;;;;;43.70;26.50;;;;;;;1.31;100.00;93663.78;5090572;28;20303;-69
2022/11/27 05:28:20;;;;;;;49.73;26.73;;;;;;;1.27;100.00;93672.06;5090033;28;20185;-69
2022/11/27 05:30:46;;;;;;;46.07;24.60;;;;;;;1.26;100.00;93666.13;5090001;28;20216;-69
2022/11/27 05:33:12;;;;;;;44.23;25.13;;;;;;;1.10;100.00;93669.09;5090130;28;20188;-69
2022/11/27 05:35:37;;;;;;;44.53;25.90;;;;;;;1.28;100.00;93668.50;5090181;28;20286;-71
2022/11/27 05:38:03;;;;;;;45.40;27.00;;;;;;;1.28;100.00;93656.44;5092598;28;20192;-69
2022/11/27 05:40:28;;;;;;;49.27;26.70;;;;;;;1.22;100.00;93671.88;5087997;28;20248;-69
2022/11/27 05:42:54;;;;;;;45.33;26.17;;;;;;;1.47;100.00;93673.69;5088896;28;20263;-69
2022/11/27 05:45:19;;;;;;;47.73;25.77;;;;;;;1.36;100.00;93669.13;5089162;28;20238;-69
2022/11/27 05:47:44;;;;;;;47.37;27.13;;;;;;;1.31;100.00;93683.53;5089639;28;20180;-69
2022/11/27 05:50:10;;;;;;;48.17;26.93;;;;;;;1.37;100.00;93672.50;5088103;28;20216;-69
2022/11/27 05:52:35;;;;;;;50.97;28.27;;;;;;;1.25;100.00;93674.84;5089671;28;20279;-69
2022/11/27 05:55:01;;;;;;;48.10;27.93;;;;;;;1.40;100.00;93683.16;5088158;28;20236;-69
2022/11/27 05:57:27;;;;;;;45.83;28.60;;;;;;;1.32;100.00;93683.34;5089614;28;21574;-67
2022/11/27 05:59:52;;;;;;;54.27;29.90;;;;;;;1.20;100.00;93677.22;5088259;28;20216;-67
2022/11/27 06:02:18;;;;;;;55.17;27.70;;;;;;;1.21;100.00;93688.28;5084441;28;20227;-67
2022/11/27 06:04:43;;;;;;;50.87;28.30;;;;;;;1.26;100.00;93697.00;5088566;28;20276;-67
2022/11/27 06:07:08;;;;;;;46.77;26.37;;;;;;;1.31;100.00;93694.63;5089909;28;20188;-67
2022/11/27 06:09:36;;;;;;;56.23;29.13;;;;;;;1.19;100.00;93698.78;5087148;28;20176;-67
2022/11/27 06:12:02;;;;;;;45.23;26.33;;;;;;;1.21;100.00;93688.28;5089870;28;20753;-69
2022/11/27 06:14:28;;;;;;;47.00;25.83;;;;;;;1.32;100.00;93680.78;5089245;28;20196;-69
2022/11/27 06:16:53;;;;;;;44.27;26.97;;;;;;;1.54;100.00;93694.28;5086049;28;20177;-69
2022/11/27 06:19:19;;;;;;;51.80;25.83;;;;;;;1.26;100.00;93649.94;5088875;28;20207;-69
2022/11/27 06:21:45;;;;;;;46.97;28.93;;;;;;;1.42;100.00;93691.47;5089221;28;20728;-69
2022/11/27 06:24:10;;;;;;;42.60;25.77;;;;;;;1.60;100.00;93696.81;5088447;28;20290;-70
2022/11/27 06:26:36;;;;;;;49.80;28.03;;;;;;;1.43;100.00;93693.06;5089281;28;20267;-70
2022/11/27 06:29:01;;;;;;;53.53;26.00;;;;;;;1.74;100.00;93696.84;5089410;28;20176;-69
2022/11/27 06:31:30;;;;;;;44.73;27.23;;;;;;;1.47;100.00;93693.47;5089279;28;20311;-69
2022/11/27 06:33:55;;;;;;;51.57;28.57;;;;;;;1.39;100.00;93696.22;5089247;28;20180;-69
2022/11/27 06:36:23;;;;;;;46.67;27.20;;;;;;;1.49;100.00;93697.41;5087973;28;20213;-69
2022/11/27 06:38:49;;;;;;;45.87;25.93;;;;;;;1.23;100.00;93653.66;5088429;28;20189;-69
2022/11/27 06:41:17;;;;;;;53.43;28.83;;;;;;;1.78;100.00;93693.66;5088766;28;20247;-69
2022/11/27 06:43:42;;;;;;;46.63;27.17;;;;;;;1.76;100.00;93698.22;5088606;28;20228;-69
2022/11/27 06:46:15;;;;;;;47.70;28.03;;;;;;;1.77;100.00;93707.53;5088464;28;20250;-69
2022/11/27 06:48:41;;;;;;;50.93;28.20;;;;;;;1.56;100.00;93708.50;5087379;28;20184;-69
2022/11/27 06:51:06;;;;;;;59.10;27.87;;;;;;;1.78;100.00;93709.13;5089027;28;20208;-69
2022/11/27 06:53:35;;;;;;;50.50;28.53;;;;;;;1.64;100.00;93707.53;5087413;28;20173;-69
2022/11/27 06:56:05;;;;;;;51.03;27.60;;;;;;;1.73;100.00;93703.00;5088936;28;20216;-69
2022/11/27 06:58:30;;;;;;;58.57;28.50;;;;;;;1.78;100.00;93698.00;5088181;28;20173;-67
2022/11/27 07:01:00;;;;;;;55.83;28.80;;;;;;;1.91;100.00;93705.75;5084089;28;20283;-68
2022/11/27 07:03:25;;;;;;;48.40;27.03;;;;;;;1.86;100.00;93692.66;5088439;28;20192;-66
2022/11/27 07:05:51;;;;;;;55.77;29.07;;;;;;;2.00;100.00;93705.34;5079519;28;20247;-67
2022/11/27 07:08:17;;;;;;;51.67;29.10;;;;;;;2.03;100.00;93696.41;5088723;28;20200;-68
2022/11/27 07:10:42;;;;;;;48.83;27.97;;;;;;;2.07;100.00;93689.88;5088242;28;20244;-67
2022/11/27 07:13:07;;;;;;;45.33;26.90;;;;;;;2.18;100.00;93702.16;5088782;28;20226;-67
2022/11/27 07:15:33;;;;;;;49.00;29.40;;;;;;;2.22;100.00;93700.75;5088447;28;20232;-67
2022/11/27 07:17:58;;;;;;;50.50;28.43;;;;;;;2.26;100.00;93707.06;5078835;28;20189;-67
2022/11/27 07:20:24;;;;;;;44.53;27.47;;;;;;;2.03;100.00;93686.91;5086759;28;20232;-67
2022/11/27 07:22:49;;;;;;;45.23;25.23;;;;;;;1.92;100.00;93673.84;5087142;28;20219;-69
2022/11/27 07:25:15;;;;;;;45.60;27.47;;;;;;;2.15;100.00;93694.84;5086732;28;20240;-68
2022/11/27 07:27:40;;;;;;;48.97;27.87;;;;;;;2.36;100.00;93697.97;5082578;28;20244;-67
2022/11/27 07:30:06;;;;;;;44.03;26.53;;;;;;;2.46;100.00;93694.97;5083208;28;20237;-67
2022/11/27 07:32:31;;;;;;;48.13;28.70;;;;;;;2.53;98.94;93695.72;5088378;28;20184;-67
2022/11/27 07:34:57;;;;;;;47.47;29.27;;;;;;;2.31;100.00;93702.13;5084800;28;20228;-67
2022/11/27 07:37:22;;;;;;;49.87;27.57;;;;;;;2.54;100.00;93697.28;5084672;28;20196;-68
2022/11/27 07:39:48;;;;;;;46.57;29.10;;;;;;;2.64;98.91;93697.66;5087995;28;20231;-67
2022/11/27 07:42:13;;;;;;;52.33;29.03;;;;;;;2.47;99.45;93692.19;5087930;28;20278;-67
2022/11/27 07:44:38;;;;;;;51.90;27.33;;;;;;;2.22;100.00;93703.31;5086104;28;20288;-67
2022/11/27 07:47:04;;;;;;;53.67;29.27;;;;;;;2.45;99.04;93690.78;5083529;28;20211;-67
2022/11/27 07:49:29;;;;;;;41.97;27.23;;;;;;;2.47;98.79;93689.59;5085740;28;20173;-68
2022/11/27 07:51:55;;;;;;;42.27;27.27;;;;;;;2.53;99.71;93699.09;5091197;28;20257;-69
2022/11/27 07:54:20;;;;;;;45.83;28.90;;;;;;;2.50;99.30;93690.97;5091064;28;20193;-69
2022/11/27 07:56:45;;;;;;;43.67;27.00;;;;;;;2.56;99.38;93692.72;5091514;28;20181;-69
2022/11/27 07:59:11;;;;;;;48.63;27.63;;;;;;;2.70;99.10;93694.28;5091873;28;20208;-68
2022/11/27 08:01:36;;;;;;;45.23;28.20;;;;;;;2.72;97.95;93694.88;5091197;28;20208;-69
2022/11/27 08:04:01;;;;;;;47.93;28.27;;;;;;;2.49;98.34;93694.56;5087920;28;20232;-69
2022/11/27 08:06:27;;;;;;;45.93;25.67;;;;;;;2.59;98.92;93685.41;5088624;28;20221;-68
2022/11/27 08:08:54;;;;;;;48.77;28.60;;;;;;;2.57;98.36;93676.28;5091364;28;20197;-68
2022/11/27 08:11:21;;;;;;;51.63;29.87;;;;;;;2.76;98.58;93696.81;5089229;28;20216;-69
2022/11/27 08:13:47;;;;;;;46.93;29.37;;;;;;;2.73;98.22;93681.78;5088773;28;20185;-68
2022/11/27 08:16:13;;;;;;;41.00;27.30;;;;;;;2.95;97.69;93700.31;5090043;28;20236;-69
2022/11/27 08:18:38;;;;;;;52.57;32.50;;;;;;;2.94;97.25;93696.16;5090891;28;20193;-68
2022/11/27 08:21:04;;;;;;;50.67;29.43;;;;;;;2.84;96.99;93690.66;5081280;28;20296;-67
2022/11/27 08:23:29;;;;;;;52.30;30.07;;;;;;;2.78;98.44;93701.78;5088795;28;20244;-66
2022/11/27 08:25:55;;;;;;;59.17;32.17;;;;;;;2.75;98.65;93703.00;5089837;28;20287;-67
2022/11/27 08:28:20;;;;;;;52.40;29.87;;;;;;;2.57;98.10;93648.72;5090142;28;20196;-65
2022/11/27 08:30:53;;;;;;;55.70;31.33;;;;;;;3.05;95.68;93700.69;5090004;28;20227;-67
2022/11/27 08:33:19;;;;;;;56.03;30.33;;;;;;;2.64;97.92;93695.09;5090936;28;20173;-67
2022/11/27 08:35:48;;;;;;;52.67;30.23;;;;;;;2.55;99.53;93697.09;5089327;28;20266;-66
2022/11/27 08:38:13;;;;;;;53.73;30.03;;;;;;;2.75;99.20;93692.69;5087625;28;20210;-66
2022/11/27 08:40:39;;;;;;;52.23;30.57;;;;;;;2.82;98.80;93692.63;5089504;28;20240;-66
2022/11/27 08:43:04;;;;;;;55.07;30.73;;;;;;;3.01;99.37;93696.91;5088702;28;20232;-67
2022/11/27 08:45:31;;;;;;;55.53;32.07;;;;;;;3.10;98.26;93693.09;5087764;28;20223;-67
2022/11/27 08:47:57;;;;;;;52.23;31.97;;;;;;;3.50;94.06;93691.88;5090603;28;20181;-65
2022/11/27 08:50:22;;;;;;;65.77;34.87;;;;;;;2.88;95.08;93640.25;5086790;28;20258;-66
2022/11/27 08:52:48;;;;;;;58.20;32.07;;;;;;;3.34;95.78;93689.78;5089952;28;20189;-68
2022/11/27 08:55:13;;;;;;;54.30;32.07;;;;;;;3.47;95.33;93684.53;5087533;28;20240;-69
2022/11/27 08:57:38;;;;;;;52.77;32.90;;;;;;;3.62;94.50;93672.13;5087839;28;20189;-72
2022/11/27 09:00:05;;;;;;;54.80;31.73;;;;;;;3.66;94.05;93667.34;5089024;28;20236;-71
2022/11/27 09:02:30;;;;;;;53.20;32.60;;;;;;;3.74;92.07;93654.13;5089027;28;20212;-68
2022/11/27 09:04:55;;;;;;;53.37;31.70;;;;;;;3.67;93.46;93656.81;5084713;28;20228;-72
2022/11/27 09:07:21;;;;;;;52.90;31.87;;;;;;;4.03;92.01;93676.75;5090638;28;20181;-69
2022/11/27 09:09:46;;;;;;;52.33;31.37;;;;;;;3.92;91.93;93675.63;5089793;28;20224;-70
2022/11/27 09:12:12;;;;;;;46.50;31.03;;;;;;;4.10;91.20;93670.53;5090317;28;21097;-70
2022/11/27 09:14:37;;;;;;;51.90;33.73;;;;;;;4.01;90.58;93676.16;5089814;28;20259;-69
2022/11/27 09:17:03;;;;;;;47.90;30.30;;;;;;;3.98;91.42;93671.44;5088246;28;20191;-70
2022/11/27 09:19:28;;;;;;;36.33;28.17;;;;;;;4.03;91.60;93669.78;5084951;28;20230;-68
2022/11/27 09:21:53;;;;;;;40.03;27.83;;;;;;;4.23;89.54;93667.81;5089507;28;20188;-69
2022/11/27 09:24:19;;;;;;;42.17;27.53;;;;;;;4.46;89.20;93659.41;5089506;28;20208;-68
2022/11/27 09:26:44;;;;;;;39.77;28.93;;;;;;;4.55;87.98;93664.09;5090084;28;20211;-68
2022/11/27 09:29:10;;;;;;;44.00;28.37;;;;;;;4.52;88.73;93659.34;5089794;28;20173;-68
2022/11/27 09:31:35;;;;;;;44.00;28.53;;;;;;;4.45;87.91;93658.63;5085531;28;20228;-68
2022/11/27 09:34:00;;;;;;;39.37;28.23;;;;;;;4.55;87.74;93648.59;5089555;28;20203;-68
2022/11/27 09:36:26;;;;;;;39.67;27.83;;;;;;;4.68;86.97;93645.06;5089375;28;20764;-68
2022/11/27 09:38:52;;;;;;;40.73;28.40;;;;;;;4.86;86.35;93650.19;5087260;28;20193;-68
2022/11/27 09:41:34;;;;;;;45.67;29.20;;;;;;;4.73;86.84;93653.72;5089664;28;20232;-69
2022/11/27 09:44:05;;;;;;;45.33;31.23;;;;;;;5.01;85.66;93649.81;5087608;28;20220;-68
2022/11/27 09:46:37;;;;;;;48.40;32.60;;;;;;;4.88;85.96;93653.34;5080925;28;20243;-69
2022/11/27 09:49:08;;;;;;;36.13;28.03;;;;;;;4.84;85.88;93647.81;5087932;28;20242;-68
2022/11/27 09:51:49;;;;;;;35.47;26.13;;;;;;;4.69;85.08;93639.66;5091105;28;20248;-68
2022/11/27 09:54:24;;;;;;;40.33;27.87;;;;;;;4.78;85.83;93651.28;5089234;28;20199;-67
2022/11/27 09:56:52;;;;;;;45.17;30.57;;;;;;;4.53;87.84;93642.81;5088426;28;20271;-69
2022/11/27 09:59:20;;;;;;;37.43;26.27;;;;;;;4.51;88.05;93634.47;5086092;28;20185;-68
2022/11/27 10:01:46;;;;;;;37.80;28.10;;;;;;;5.00;86.19;93622.38;5084923;28;20169;-68
2022/11/27 10:04:15;;;;;;;36.20;25.03;;;;;;;5.05;85.22;93623.28;5084897;28;20242;-68
2022/11/27 10:07:02;;;;;;;34.87;24.30;;;;;;;5.15;84.14;93623.56;5085153;28;20220;-65
2022/11/27 10:09:39;;;;;;;27.27;21.60;;;;;;;5.27;82.51;93618.38;5095705;28;20220;-68
2022/11/27 10:12:07;;;;;;;27.97;23.97;;;;;;;5.03;82.78;93619.34;5087857;28;20240;-67
2022/11/27 10:14:51;;;;;;;28.33;23.47;;;;;;;5.17;82.04;93625.91;5087702;28;20181;-67
2022/11/27 10:17:22;;;;;;;26.90;22.27;;;;;;;5.11;83.08;93616.41;5084460;28;20219;-67
2022/11/27 10:20:17;;;;;;;31.67;23.63;;;;;;;5.13;83.70;93617.78;5085246;28;20244;-69
2022/11/27 10:22:43;;;;;;;26.60;23.53;;;;;;;5.46;83.61;93612.13;5102835;28;20219;-68
2022/11/27 10:25:30;;;;;;;30.83;23.30;;;;;;;5.44;81.36;93606.38;5087373;28;20224;-68
2022/11/27 10:28:22;;;;;;;30.60;24.33;;;;;;;5.38;81.15;93596.91;5084520;28;20203;-68
2022/11/27 10:30:57;;;;;;;28.43;22.93;;;;;;;5.35;81.29;93597.38;5083731;28;20221;-66
2022/11/27 10:33:30;;;;;;;32.83;25.27;;;;;;;5.50;82.72;93593.34;5086967;28;20187;-68
2022/11/27 10:35:57;;;;;;;30.33;23.93;;;;;;;5.79;81.36;93589.09;5086601;28;20220;-66
2022/11/27 10:38:25;;;;;;;30.87;23.63;;;;;;;5.90;79.71;93590.94;5088182;28;20173;-66
2022/11/27 10:41:15;;;;;;;32.93;23.13;;;;;;;5.72;79.30;93584.00;5087449;28;20244;-67
2022/11/27 10:43:40;;;;;;;35.20;23.17;;;;;;;5.89;79.16;93584.16;5082852;28;20221;-68
2022/11/27 10:46:20;;;;;;;26.53;22.20;;;;;;;5.86;79.43;93589.78;5087555;28;20303;-67
2022/11/27 10:48:46;;;;;;;26.17;21.60;;;;;;;5.63;80.26;93581.97;5085875;28;20199;-68
2022/11/27 10:51:17;;;;;;;27.67;20.97;;;;;;;5.55;79.64;93580.50;5088418;28;20220;-67
2022/11/27 10:53:46;;;;;;;25.87;21.23;;;;;;;5.43;79.20;93578.91;5088622;28;20187;-67
2022/11/27 10:56:12;;;;;;;26.90;20.57;;;;;;;5.54;80.16;93572.97;5087696;28;20284;-68
2022/11/27 10:58:46;;;;;;;33.27;23.50;;;;;;;5.68;79.97;93576.91;5087830;28;20184;-67
2022/11/27 11:01:14;;;;;;;35.67;23.53;;;;;;;5.66;79.74;93563.41;5084784;28;20217;-67
2022/11/27 11:03:40;;;;;;;32.77;21.90;;;;;;;5.87;80.89;93573.22;5083989;28;20181;-67
2022/11/27 11:06:13;;;;;;;26.27;21.57;;;;;;;6.12;78.61;93576.34;5082634;28;20266;-65
2022/11/27 11:08:39;;;;;;;25.77;21.83;;;;;;;6.13;76.89;93565.75;5089238;28;20177;-65
2022/11/27 11:11:06;;;;;;;27.53;21.10;;;;;;;6.09;77.01;93575.00;5088397;28;20223;-65
2022/11/27 11:13:40;;;;;;;25.83;21.03;;;;;;;6.01;77.89;93571.97;5089244;28;20185;-66
2022/11/27 11:16:17;;;;;;;32.00;22.57;;;;;;;5.97;78.09;93570.84;5088278;28;20258;-66
2022/11/27 11:18:50;;;;;;;24.30;21.40;;;;;;;5.71;78.91;93556.50;5084567;28;20180;-66
2022/11/27 11:21:31;;;;;;;23.10;20.50;;;;;;;5.94;78.73;93564.34;5085363;28;20228;-66
2022/11/27 11:24:06;;;;;;;26.90;21.77;;;;;;;5.91;79.59;93559.59;5092590;28;20210;-66
2022/11/27 11:26:37;;;;;;;32.57;22.73;;;;;;;5.97;79.40;93552.72;5092416;28;20215;-66